THY1B LTBJ-LTBS
Flight info
| Callsign | THY1B |
|---|---|
| Flight time | 0h 39m |
| Altitude | 27000 |
| Route | UFQUM M19 OZNEF/N0419F260 T238 OKESA/N0409F250 G80 YOYYO W79 ERFES |
| Aircraft | A333/H-SDE3GHIJ2J3J5M1RVWXY/LB2D1 |
Departure
| Time | 2026-05-06 13:14 |
|---|---|
| Airport | Adnan Menderes International Airport (LTBJ) |
Arrival
| Time | 2026-05-06 13:53 |
|---|---|
| Airport | Dalaman International Airport (LTBS) |
| Time | Latitude | Longitude | Altitude | Speed | Heading |
|---|---|---|---|---|---|
| 2026-05-06 12:50 | 38.29353 | 27.15037 | 411 ft | 0 kts | 257° |
| 2026-05-06 13:01 | 38.29356 | 27.15057 | 405 ft | 4 kts | 263° |
| 2026-05-06 13:01 | 38.29360 | 27.15090 | 408 ft | 4 kts | 241° |
| 2026-05-06 13:02 | 38.29372 | 27.15112 | 405 ft | 4 kts | 206° |
| 2026-05-06 13:02 | 38.29392 | 27.15113 | 405 ft | 4 kts | 167° |
| 2026-05-06 13:02 | 38.29405 | 27.15109 | 405 ft | 0 kts | 167° |
| 2026-05-06 13:06 | 38.29386 | 27.15116 | 405 ft | 7 kts | 164° |
| 2026-05-06 13:07 | 38.29311 | 27.15141 | 410 ft | 14 kts | 165° |
| 2026-05-06 13:07 | 38.29207 | 27.15174 | 412 ft | 17 kts | 166° |
| 2026-05-06 13:07 | 38.29083 | 27.15212 | 410 ft | 20 kts | 166° |
| 2026-05-06 13:07 | 38.29017 | 27.15246 | 410 ft | 2 kts | 115° |
| 2026-05-06 13:08 | 38.29011 | 27.15275 | 411 ft | 6 kts | 110° |
| 2026-05-06 13:08 | 38.28983 | 27.15303 | 413 ft | 5 kts | 156° |
| 2026-05-06 13:08 | 38.28946 | 27.15316 | 413 ft | 6 kts | 164° |
| 2026-05-06 13:08 | 38.28905 | 27.15329 | 413 ft | 6 kts | 167° |
| 2026-05-06 13:09 | 38.28827 | 27.15353 | 410 ft | 15 kts | 166° |
| 2026-05-06 13:09 | 38.28724 | 27.15384 | 417 ft | 15 kts | 167° |
| 2026-05-06 13:09 | 38.28618 | 27.15416 | 417 ft | 17 kts | 167° |
| 2026-05-06 13:09 | 38.28495 | 27.15453 | 413 ft | 20 kts | 166° |
| 2026-05-06 13:10 | 38.28354 | 27.15498 | 412 ft | 22 kts | 166° |
| 2026-05-06 13:10 | 38.28196 | 27.15547 | 416 ft | 25 kts | 167° |
| 2026-05-06 13:10 | 38.28037 | 27.15593 | 413 ft | 23 kts | 166° |
| 2026-05-06 13:10 | 38.27873 | 27.15644 | 414 ft | 24 kts | 169° |
| 2026-05-06 13:11 | 38.27765 | 27.15689 | 413 ft | 8 kts | 137° |
| 2026-05-06 13:11 | 38.27765 | 27.15741 | 412 ft | 10 kts | 76° |
| 2026-05-06 13:11 | 38.27784 | 27.15840 | 417 ft | 14 kts | 76° |
| 2026-05-06 13:11 | 38.27804 | 27.15958 | 415 ft | 12 kts | 78° |
| 2026-05-06 13:12 | 38.27814 | 27.16014 | 415 ft | 1 kts | 77° |
| 2026-05-06 13:12 | 38.27820 | 27.16048 | 415 ft | 6 kts | 77° |
| 2026-05-06 13:12 | 38.27841 | 27.16108 | 409 ft | 2 kts | 35° |
| 2026-05-06 13:12 | 38.27871 | 27.16110 | 414 ft | 6 kts | 354° |
| 2026-05-06 13:13 | 38.27881 | 27.16107 | 411 ft | 0 kts | 348° |
| 2026-05-06 13:13 | 38.27968 | 27.16086 | 411 ft | 41 kts | 349° |
| 2026-05-06 13:13 | 38.28503 | 27.15918 | 415 ft | 115 kts | 346° |
| 2026-05-06 13:14 | 38.29481 | 27.15619 | 546 ft | 170 kts | 346° |
| 2026-05-06 13:14 | 38.30713 | 27.15246 | 1224 ft | 190 kts | 347° |
| 2026-05-06 13:14 | 38.32035 | 27.14849 | 2308 ft | 202 kts | 345° |
| 2026-05-06 13:14 | 38.33466 | 27.14413 | 3254 ft | 218 kts | 346° |
| 2026-05-06 13:15 | 38.34957 | 27.13962 | 4429 ft | 219 kts | 346° |
| 2026-05-06 13:15 | 38.36439 | 27.13518 | 5623 ft | 219 kts | 347° |
| 2026-05-06 13:15 | 38.37947 | 27.13069 | 6688 ft | 225 kts | 347° |
| 2026-05-06 13:15 | 38.39493 | 27.12674 | 7452 ft | 231 kts | 354° |
| 2026-05-06 13:16 | 38.41177 | 27.12921 | 7880 ft | 259 kts | 20° |
| 2026-05-06 13:16 | 38.42629 | 27.14359 | 7979 ft | 273 kts | 52° |
| 2026-05-06 13:16 | 38.43247 | 27.16655 | 7998 ft | 281 kts | 86° |
| 2026-05-06 13:16 | 38.42762 | 27.19021 | 8252 ft | 288 kts | 121° |
| 2026-05-06 13:17 | 38.41297 | 27.20793 | 9062 ft | 296 kts | 144° |
| 2026-05-06 13:17 | 38.39545 | 27.22207 | 10156 ft | 300 kts | 147° |
| 2026-05-06 13:17 | 38.37725 | 27.23670 | 10792 ft | 321 kts | 146° |
| 2026-05-06 13:17 | 38.35781 | 27.25299 | 11140 ft | 347 kts | 145° |
| 2026-05-06 13:18 | 38.33722 | 27.27078 | 11659 ft | 365 kts | 144° |
| 2026-05-06 13:18 | 38.31600 | 27.28939 | 12424 ft | 375 kts | 144° |
| 2026-05-06 13:18 | 38.30160 | 27.30211 | 12981 ft | 380 kts | 144° |
| 2026-05-06 13:18 | 38.27967 | 27.32152 | 13820 ft | 388 kts | 144° |
| 2026-05-06 13:19 | 38.25724 | 27.34141 | 14574 ft | 396 kts | 144° |
| 2026-05-06 13:19 | 38.23452 | 27.36158 | 15387 ft | 400 kts | 144° |
| 2026-05-06 13:19 | 38.21156 | 27.38195 | 16210 ft | 405 kts | 145° |
| 2026-05-06 13:19 | 38.18790 | 27.40173 | 17016 ft | 410 kts | 153° |
| 2026-05-06 13:20 | 38.16090 | 27.41373 | 17799 ft | 414 kts | 168° |
| 2026-05-06 13:20 | 38.13261 | 27.42120 | 18549 ft | 418 kts | 171° |
| 2026-05-06 13:20 | 38.10386 | 27.42811 | 19202 ft | 423 kts | 171° |
| 2026-05-06 13:20 | 38.07476 | 27.43518 | 19857 ft | 428 kts | 171° |
| 2026-05-06 13:21 | 38.04536 | 27.44244 | 20489 ft | 432 kts | 171° |
| 2026-05-06 13:21 | 38.01573 | 27.44986 | 21127 ft | 437 kts | 171° |
| 2026-05-06 13:21 | 37.98575 | 27.45742 | 21768 ft | 441 kts | 171° |
| 2026-05-06 13:21 | 37.95537 | 27.46510 | 22239 ft | 450 kts | 171° |
| 2026-05-06 13:22 | 37.92417 | 27.47299 | 22466 ft | 463 kts | 171° |
| 2026-05-06 13:22 | 37.89259 | 27.48103 | 22805 ft | 474 kts | 170° |
| 2026-05-06 13:22 | 37.86027 | 27.49053 | 23296 ft | 480 kts | 168° |
| 2026-05-06 13:22 | 37.82779 | 27.50137 | 23806 ft | 486 kts | 167° |
| 2026-05-06 13:23 | 37.79516 | 27.51287 | 24264 ft | 490 kts | 166° |
| 2026-05-06 13:23 | 37.76176 | 27.52171 | 24698 ft | 490 kts | 178° |
| 2026-05-06 13:23 | 37.72782 | 27.52019 | 25120 ft | 487 kts | 194° |
| 2026-05-06 13:23 | 37.69577 | 27.50753 | 25561 ft | 481 kts | 210° |
| 2026-05-06 13:24 | 37.66800 | 27.48483 | 26039 ft | 472 kts | 226° |
| 2026-05-06 13:24 | 37.64632 | 27.45435 | 26475 ft | 466 kts | 239° |
| 2026-05-06 13:24 | 37.62522 | 27.42285 | 26888 ft | 478 kts | 228° |
| 2026-05-06 13:24 | 37.59776 | 27.39832 | 27050 ft | 490 kts | 214° |
| 2026-05-06 13:25 | 37.56633 | 27.38100 | 27046 ft | 500 kts | 201° |
| 2026-05-06 13:25 | 37.53170 | 27.37405 | 27062 ft | 510 kts | 185° |
| 2026-05-06 13:25 | 37.49623 | 27.37846 | 27062 ft | 517 kts | 169° |
| 2026-05-06 13:25 | 37.46244 | 27.39409 | 27061 ft | 520 kts | 153° |
| 2026-05-06 13:26 | 37.43268 | 27.41993 | 27069 ft | 521 kts | 137° |
| 2026-05-06 13:26 | 37.40903 | 27.45417 | 27054 ft | 518 kts | 121° |
| 2026-05-06 13:26 | 37.39269 | 27.49428 | 27067 ft | 513 kts | 106° |
| 2026-05-06 13:26 | 37.38490 | 27.53762 | 27059 ft | 505 kts | 90° |
| 2026-05-06 13:27 | 37.38616 | 27.58113 | 27057 ft | 495 kts | 75° |
| 2026-05-06 13:27 | 37.39620 | 27.62188 | 27061 ft | 483 kts | 59° |
| 2026-05-06 13:27 | 37.41406 | 27.65687 | 27059 ft | 469 kts | 43° |
| 2026-05-06 13:27 | 37.43813 | 27.68350 | 27055 ft | 456 kts | 27° |
| 2026-05-06 13:28 | 37.46543 | 27.70359 | 27054 ft | 456 kts | 27° |
| 2026-05-06 13:28 | 37.48958 | 27.73006 | 27065 ft | 470 kts | 44° |
| 2026-05-06 13:28 | 37.50745 | 27.76501 | 27052 ft | 482 kts | 60° |
| 2026-05-06 13:28 | 37.51745 | 27.80572 | 27047 ft | 494 kts | 76° |
| 2026-05-06 13:29 | 37.51866 | 27.84923 | 27053 ft | 505 kts | 91° |
| 2026-05-06 13:29 | 37.51078 | 27.89270 | 27051 ft | 514 kts | 107° |
| 2026-05-06 13:29 | 37.49425 | 27.93273 | 27056 ft | 520 kts | 123° |
| 2026-05-06 13:29 | 37.47044 | 27.96620 | 27059 ft | 522 kts | 139° |
| 2026-05-06 13:30 | 37.44037 | 27.99158 | 27053 ft | 521 kts | 155° |
| 2026-05-06 13:30 | 37.40596 | 28.00674 | 27052 ft | 517 kts | 171° |
| 2026-05-06 13:30 | 37.37082 | 28.01042 | 27062 ft | 509 kts | 187° |
| 2026-05-06 13:30 | 37.33639 | 28.00291 | 27060 ft | 499 kts | 202° |
| 2026-05-06 13:31 | 37.30530 | 27.98482 | 27057 ft | 486 kts | 218° |
| 2026-05-06 13:31 | 37.27989 | 27.95781 | 27058 ft | 474 kts | 234° |
| 2026-05-06 13:31 | 37.26179 | 27.92410 | 27054 ft | 460 kts | 250° |
| 2026-05-06 13:31 | 37.25222 | 27.88653 | 27054 ft | 448 kts | 266° |
| 2026-05-06 13:32 | 37.25168 | 27.84812 | 27046 ft | 436 kts | 282° |
| 2026-05-06 13:32 | 37.25839 | 27.81129 | 27051 ft | 434 kts | 287° |
| 2026-05-06 13:32 | 37.26379 | 27.77386 | 27048 ft | 437 kts | 282° |
| 2026-05-06 13:32 | 37.26792 | 27.73600 | 27058 ft | 438 kts | 281° |
| 2026-05-06 13:33 | 37.27170 | 27.69810 | 27057 ft | 438 kts | 281° |
| 2026-05-06 13:33 | 37.27550 | 27.66019 | 27059 ft | 438 kts | 281° |
| 2026-05-06 13:33 | 37.27570 | 27.62181 | 27059 ft | 447 kts | 266° |
| 2026-05-06 13:33 | 37.26671 | 27.58407 | 27065 ft | 459 kts | 250° |
| 2026-05-06 13:34 | 37.24915 | 27.55007 | 27048 ft | 472 kts | 234° |
| 2026-05-06 13:34 | 37.22604 | 27.52043 | 27044 ft | 477 kts | 229° |
| 2026-05-06 13:34 | 37.20027 | 27.49365 | 27051 ft | 485 kts | 220° |
| 2026-05-06 13:34 | 37.17083 | 27.47243 | 27032 ft | 494 kts | 209° |
| 2026-05-06 13:35 | 37.13790 | 27.45900 | 27045 ft | 504 kts | 196° |
| 2026-05-06 13:35 | 37.10273 | 27.45495 | 27055 ft | 512 kts | 182° |
| 2026-05-06 13:35 | 37.06733 | 27.46101 | 27058 ft | 518 kts | 168° |
| 2026-05-06 13:35 | 37.03360 | 27.47703 | 27069 ft | 521 kts | 154° |
| 2026-05-06 13:36 | 37.00343 | 27.50212 | 27051 ft | 523 kts | 139° |
| 2026-05-06 13:36 | 36.97832 | 27.53499 | 27015 ft | 522 kts | 126° |
| 2026-05-06 13:36 | 36.95964 | 27.57346 | 26776 ft | 516 kts | 112° |
| 2026-05-06 13:36 | 36.94846 | 27.61506 | 26521 ft | 508 kts | 98° |
| 2026-05-06 13:37 | 36.94482 | 27.65899 | 26266 ft | 498 kts | 85° |
| 2026-05-06 13:37 | 36.94888 | 27.70152 | 26019 ft | 487 kts | 71° |
| 2026-05-06 13:37 | 36.95834 | 27.74126 | 25771 ft | 481 kts | 66° |
| 2026-05-06 13:37 | 36.96989 | 27.78028 | 25524 ft | 478 kts | 63° |
| 2026-05-06 13:38 | 36.98246 | 27.81863 | 25291 ft | 475 kts | 62° |
| 2026-05-06 13:38 | 36.99515 | 27.85675 | 25061 ft | 474 kts | 62° |
| 2026-05-06 13:38 | 37.00754 | 27.89484 | 24813 ft | 473 kts | 63° |
| 2026-05-06 13:38 | 37.01952 | 27.93303 | 24595 ft | 472 kts | 64° |
| 2026-05-06 13:39 | 37.03114 | 27.97140 | 24367 ft | 470 kts | 65° |
| 2026-05-06 13:39 | 37.04191 | 28.01002 | 24134 ft | 471 kts | 70° |
| 2026-05-06 13:39 | 37.04818 | 28.05042 | 23904 ft | 476 kts | 81° |
| 2026-05-06 13:39 | 37.04773 | 28.09190 | 23676 ft | 481 kts | 94° |
| 2026-05-06 13:40 | 37.03930 | 28.13262 | 23418 ft | 486 kts | 110° |
| 2026-05-06 13:40 | 37.02335 | 28.16997 | 23147 ft | 488 kts | 121° |
| 2026-05-06 13:40 | 37.00494 | 28.20547 | 22870 ft | 485 kts | 120° |
| 2026-05-06 13:40 | 36.99096 | 28.24339 | 22608 ft | 478 kts | 104° |
| 2026-05-06 13:41 | 36.98572 | 28.28386 | 22339 ft | 468 kts | 87° |
| 2026-05-06 13:41 | 36.98958 | 28.32372 | 22080 ft | 458 kts | 70° |
| 2026-05-06 13:41 | 36.99991 | 28.36103 | 21605 ft | 452 kts | 64° |
| 2026-05-06 13:41 | 37.01143 | 28.39744 | 20938 ft | 448 kts | 64° |
| 2026-05-06 13:42 | 37.02267 | 28.43360 | 20293 ft | 443 kts | 65° |
| 2026-05-06 13:42 | 37.03347 | 28.46952 | 19668 ft | 439 kts | 65° |
| 2026-05-06 13:42 | 37.04394 | 28.50516 | 19034 ft | 434 kts | 66° |
| 2026-05-06 13:42 | 37.05416 | 28.54049 | 18421 ft | 430 kts | 66° |
| 2026-05-06 13:43 | 37.06424 | 28.57560 | 17739 ft | 426 kts | 66° |
| 2026-05-06 13:43 | 37.07414 | 28.61032 | 17102 ft | 420 kts | 66° |
| 2026-05-06 13:43 | 37.08506 | 28.64388 | 16453 ft | 413 kts | 62° |
| 2026-05-06 13:43 | 37.09720 | 28.67626 | 15907 ft | 409 kts | 60° |
| 2026-05-06 13:44 | 37.10948 | 28.70821 | 15314 ft | 405 kts | 60° |
| 2026-05-06 13:44 | 37.12160 | 28.73979 | 14707 ft | 401 kts | 60° |
| 2026-05-06 13:44 | 37.13329 | 28.77137 | 14109 ft | 399 kts | 64° |
| 2026-05-06 13:44 | 37.14086 | 28.80483 | 13478 ft | 399 kts | 75° |
| 2026-05-06 13:45 | 37.14587 | 28.83880 | 13024 ft | 392 kts | 77° |
| 2026-05-06 13:45 | 37.15496 | 28.90558 | 12831 ft | 391 kts | 77° |
| 2026-05-06 13:45 | 37.15630 | 28.93962 | 12676 ft | 396 kts | 94° |
| 2026-05-06 13:46 | 37.14831 | 28.97254 | 12509 ft | 393 kts | 116° |
| 2026-05-06 13:46 | 37.13194 | 28.99882 | 12359 ft | 377 kts | 137° |
| 2026-05-06 13:46 | 37.11037 | 29.01591 | 12181 ft | 362 kts | 160° |
| 2026-05-06 13:46 | 37.08617 | 29.01984 | 11976 ft | 345 kts | 188° |
| 2026-05-06 13:47 | 37.06423 | 29.01039 | 11831 ft | 327 kts | 213° |
| 2026-05-06 13:47 | 37.04569 | 28.99493 | 11552 ft | 316 kts | 218° |
| 2026-05-06 13:47 | 37.02822 | 28.97896 | 11079 ft | 305 kts | 219° |
| 2026-05-06 13:47 | 37.01147 | 28.96325 | 10490 ft | 298 kts | 219° |
| 2026-05-06 13:48 | 36.99497 | 28.94756 | 9786 ft | 299 kts | 219° |
| 2026-05-06 13:48 | 36.97850 | 28.93182 | 8981 ft | 297 kts | 219° |
| 2026-05-06 13:48 | 36.96210 | 28.91612 | 8215 ft | 296 kts | 219° |
| 2026-05-06 13:48 | 36.94592 | 28.90056 | 7460 ft | 291 kts | 218° |
| 2026-05-06 13:49 | 36.92993 | 28.88514 | 6722 ft | 289 kts | 219° |
| 2026-05-06 13:49 | 36.91395 | 28.86987 | 5984 ft | 288 kts | 218° |
| 2026-05-06 13:49 | 36.89701 | 28.85654 | 5234 ft | 289 kts | 208° |
| 2026-05-06 13:49 | 36.87822 | 28.84801 | 4472 ft | 284 kts | 195° |
| 2026-05-06 13:50 | 36.85948 | 28.84243 | 3737 ft | 269 kts | 196° |
| 2026-05-06 13:50 | 36.84196 | 28.83689 | 3134 ft | 249 kts | 195° |
| 2026-05-06 13:50 | 36.82571 | 28.83136 | 2671 ft | 232 kts | 195° |
| 2026-05-06 13:50 | 36.81112 | 28.82615 | 2492 ft | 204 kts | 195° |
| 2026-05-06 13:51 | 36.79852 | 28.82168 | 2435 ft | 174 kts | 195° |
| 2026-05-06 13:51 | 36.78728 | 28.81791 | 2128 ft | 165 kts | 192° |
| 2026-05-06 13:51 | 36.77617 | 28.81450 | 1706 ft | 164 kts | 196° |
| 2026-05-06 13:51 | 36.76564 | 28.81083 | 1320 ft | 156 kts | 199° |
| 2026-05-06 13:52 | 36.75520 | 28.80708 | 942 ft | 153 kts | 197° |
| 2026-05-06 13:52 | 36.74517 | 28.80341 | 574 ft | 151 kts | 194° |
| 2026-05-06 13:52 | 36.73522 | 28.80002 | 267 ft | 144 kts | 193° |
| 2026-05-06 13:52 | 36.72597 | 28.79685 | 63 ft | 131 kts | 192° |
| 2026-05-06 13:53 | 36.71797 | 28.79416 | 39 ft | 102 kts | 195° |
| 2026-05-06 13:53 | 36.71303 | 28.79249 | 40 ft | 46 kts | 196° |
| 2026-05-06 13:53 | 36.71025 | 28.79153 | 40 ft | 39 kts | 195° |
| 2026-05-06 13:53 | 36.70814 | 28.79080 | 40 ft | 27 kts | 196° |
| 2026-05-06 13:54 | 36.70672 | 28.79001 | 41 ft | 20 kts | 218° |
| 2026-05-06 13:54 | 36.70618 | 28.78935 | 41 ft | 4 kts | 226° |
| 2026-05-06 13:54 | 36.70596 | 28.78906 | 41 ft | 5 kts | 226° |
| 2026-05-06 13:54 | 36.70569 | 28.78859 | 41 ft | 8 kts | 248° |
| 2026-05-06 13:55 | 36.70584 | 28.78810 | 39 ft | 5 kts | 324° |
| 2026-05-06 13:55 | 36.70614 | 28.78804 | 41 ft | 5 kts | 359° |
| 2026-05-06 13:55 | 36.70650 | 28.78812 | 41 ft | 7 kts | 12° |
| 2026-05-06 13:55 | 36.70706 | 28.78829 | 41 ft | 10 kts | 15° |
| 2026-05-06 13:56 | 36.70831 | 28.78872 | 40 ft | 23 kts | 15° |
| 2026-05-06 13:56 | 36.70989 | 28.78927 | 40 ft | 22 kts | 16° |
| 2026-05-06 13:56 | 36.71131 | 28.78975 | 40 ft | 22 kts | 15° |
| 2026-05-06 13:56 | 36.71281 | 28.79026 | 40 ft | 20 kts | 15° |
| 2026-05-06 13:57 | 36.71405 | 28.79068 | 40 ft | 18 kts | 14° |
| 2026-05-06 13:57 | 36.71534 | 28.79111 | 40 ft | 21 kts | 15° |
| 2026-05-06 13:57 | 36.71670 | 28.79157 | 40 ft | 19 kts | 15° |
| 2026-05-06 13:57 | 36.71789 | 28.79198 | 39 ft | 17 kts | 15° |
| 2026-05-06 13:58 | 36.71857 | 28.79208 | 39 ft | 7 kts | 336° |
| 2026-05-06 13:58 | 36.71879 | 28.79158 | 39 ft | 7 kts | 288° |
| 2026-05-06 13:58 | 36.71896 | 28.79086 | 39 ft | 9 kts | 285° |
| 2026-05-06 13:58 | 36.71930 | 28.79036 | 39 ft | 7 kts | 352° |
| 2026-05-06 13:59 | 36.71980 | 28.79048 | 39 ft | 1 kts | 15° |
| 2026-05-06 13:59 | 36.71992 | 28.79053 | 39 ft | 4 kts | 15° |
| 2026-05-06 13:59 | 36.72025 | 28.79064 | 39 ft | 0 kts | 15° |
| 2026-05-06 13:59 | 36.72039 | 28.79069 | 39 ft | 4 kts | 15° |
| 2026-05-06 14:00 | 36.72075 | 28.79081 | 39 ft | 6 kts | 14° |
| 2026-05-06 14:00 | 36.72094 | 28.79078 | 39 ft | 1 kts | 334° |
| 2026-05-06 14:00 | 36.72108 | 28.79065 | 39 ft | 2 kts | 316° |
| 2026-05-06 14:00 | 36.72116 | 28.79043 | 39 ft | 3 kts | 292° |
| 2026-05-06 14:01 | 36.72122 | 28.79021 | 39 ft | 3 kts | 288° |
| 2026-05-06 14:01 | 36.72124 | 28.79012 | 39 ft | 1 kts | 288° |
| 2026-05-06 14:01 | 36.72125 | 28.79009 | 39 ft | 0 kts | 287° |
| 2026-05-06 14:02 | 36.72125 | 28.79008 | 39 ft | 0 kts | 287° |